Text Box: All records at near 07:00 local time
Kleivo 1 weather for Nov 2007
Month no. 12
Obs.
Da.
Temp. Dew Point Precip. Wind
Speed
Wind gusts Cloud cover Press. Humidity Wind dir. Sunny OPT
01.11.2007 7,8   16,0 0,0   1 997,3 96,0 247,5   52,5 %
02.11.2007 -0,2   1,0 0,0   1 1010,2 92,0 225,0   55,0 %
03.11.2007 8,3   6,7 4,0   1 996,3 89,0 247,5   57,5 %
04.11.2007 0,4   0,5 0,0   1 1008,1 94,0 157,5   57,5 %
05.11.2007 6,7   0,0 15,0   1 999,0 82,0 0,0   52,5 %
06.11.2007 1,1   14,4 0,0   1 995,9 93,0 180,0   47,5 %
07.11.2007 4,8   14,9 4,0   1 981,7 89,0 135,0   47,5 %
08.11.2007 5,6   4,6 2,0   1 979,7 96,0 315,0   60,0 %
09.11.2007 3,9   4,6 5,0   1 979,7 78,0 0,0   55,0 %
10.11.2007 -0,2   0,5 0,0   1 990,5 94,0 135,0   55,0 %
11.11.2007 -2,7   5,6 0,0   1 986,1 94,0 157,5   50,0 %
12.11.2007 1,3   7,7 0,0   1 994,6 94,0 157,5   52,5 %
13.11.2007 1,6   0,0 3,0   1 993,2 80,0 292,5   57,5 %
14.11.2007 0,8   0,0 0,0   1 998,6 71,0 180,0   57,5 %
15.11.2007 -1,5   0,0 0,0   8 1023,4 93,0 22,5 1 72,5 %
16.11.2007 2,4   0,0 0,0   8 1019,3 98,0 22,5 1 75,0 %
17.11.2007 5,8   1,0 3,0   1 997,3 95,0 0,0   62,5 %
18.11.2007 8,1   0,5 11,0   1 991,5 85,0 180,0   57,5 %
19.11.2007 1,8   0,5 0,0   1 1001,4 93,0 0,0   57,5 %
20.11.2007 1,3   0,0 0,0   1 1001,0 93,0 22,5   57,5 %
21.11.2007 7,0   0,0 4,0   1 993,6 64,0 135,0   60,0 %
22.11.2007 6,4   5,6 8,0   1 980,7 87,0 135,0   55,0 %
23.11.2007 1,6   10,8 3,0   1 990,9 74,0 135,0   50,0 %
24.11.2007 3,9   0,0 16,0   1 992,9 70,0 157,5   50,0 %
25.11.2007 3,4   14,6 6,0   1 979,7 92,0 247,5   47,5 %
26.11.2007 -0,5   3,1 0,0   1 999,3 90,0 135,0   52,5 %
27.11.2007 -2,2   0,0 0,0   1 1006,4 87,0 0,0   55,0 %
28.11.2007 5,3   0,5 5,0   1 991,2 95,0 157,5   60,0 %
29.11.2007 5,2   10,8 0,0   1 970,2 94,0 225,0   55,0 %
30.11.2007 3,6   1,0 0,0   1 976,6 95,0 292,5   60,0 %
                       
Avrg/Sum 3,0   124,9 3,0   1,5 994,2 88,2 143,3 2 56,2 %